createdAt,value
2022-08-12T00:14:34.543Z,2.5
2022-08-12T00:29:51.304Z,2.4
2022-08-12T00:45:02.623Z,2.6
2022-08-12T01:00:12.186Z,2.3
2022-08-12T01:15:21.952Z,2.8
2022-08-12T01:30:31.358Z,2.7
2022-08-12T01:45:46.973Z,2.5
2022-08-12T02:00:56.705Z,2.3
2022-08-12T02:16:06.594Z,2.4
2022-08-12T02:31:15.996Z,2.8
2022-08-12T02:46:25.022Z,3
2022-08-12T03:01:34.767Z,2.8
2022-08-12T03:16:52.436Z,3.3
2022-08-12T03:32:02.619Z,2.9
2022-08-12T03:47:17.174Z,2.9
2022-08-12T04:02:26.312Z,3.1
2022-08-12T04:17:35.390Z,3.3
2022-08-12T04:32:45.228Z,3.4
2022-08-12T04:47:55.514Z,3.7
2022-08-12T05:03:05.278Z,3.8
2022-08-12T05:18:20.601Z,3.5
2022-08-12T05:33:30.685Z,4.1
2022-08-12T05:48:39.924Z,4.4
2022-08-12T06:03:49.168Z,4
2022-08-12T06:19:02.611Z,4.8
2022-08-12T06:35:49.078Z,4.3
2022-08-12T06:51:02.848Z,4.2
2022-08-12T07:06:12.903Z,3.7
2022-08-12T07:21:22.237Z,3.8
2022-08-12T07:36:31.549Z,3.8
2022-08-12T07:51:40.786Z,3.6
2022-08-12T08:06:50.836Z,3.5
2022-08-12T08:22:03.277Z,3.3
2022-08-12T08:37:17.093Z,3.7
2022-08-12T08:52:41.056Z,2.9
2022-08-12T09:44:05.659Z,2.8
2022-08-12T10:00:19.334Z,2.4
2022-08-12T10:16:06.185Z,2.7
2022-08-12T10:31:17.052Z,2.9
2022-08-12T10:46:31.826Z,2.7
2022-08-12T11:04:34.091Z,2.6
2022-08-12T11:20:05.949Z,2
2022-08-12T11:35:17.416Z,2.5
2022-08-12T11:50:32.733Z,2.3
2022-08-12T12:05:46.071Z,2.3
2022-08-12T12:20:57.521Z,2.1
2022-08-12T12:36:26.521Z,2
2022-08-12T12:52:18.285Z,2.4
2022-08-12T13:08:00.931Z,2.6
2022-08-12T13:23:37.744Z,2.4
2022-08-12T13:38:55.528Z,2.1
2022-08-12T13:54:11.739Z,2.4
2022-08-12T14:09:29.766Z,2
2022-08-12T14:24:41.375Z,2.4
2022-08-12T14:39:51.458Z,2.2
2022-08-12T15:12:24.849Z,2.3
2022-08-12T15:28:21.719Z,2
2022-08-12T15:44:37.529Z,2
2022-08-12T16:00:09.380Z,3.1
2022-08-12T16:16:03.241Z,2.1
2022-08-12T16:31:33.576Z,2.3
2022-08-12T16:46:58.309Z,1.8
2022-08-12T17:02:08.596Z,2.2
2022-08-12T17:17:39.744Z,2
2022-08-12T17:32:53.665Z,1.4
2022-08-12T17:50:59.047Z,2
2022-08-12T18:06:14.942Z,1.7
2022-08-12T18:21:26.027Z,1.7
2022-08-12T18:37:42.561Z,1.6
2022-08-12T18:52:52.053Z,1.8
2022-08-12T19:08:02.580Z,1.9
2022-08-12T19:23:22.260Z,2.2
2022-08-12T19:38:33.302Z,2.8
2022-08-12T19:53:58.628Z,2.3
2022-08-12T20:09:07.968Z,2.1
2022-08-12T20:24:19.538Z,2.4
2022-08-12T20:39:57.507Z,2.7
2022-08-12T20:55:19.665Z,2.7
2022-08-12T21:10:28.904Z,2.2
2022-08-12T21:25:46.310Z,2.6
2022-08-12T21:40:55.687Z,2.7
2022-08-12T21:56:05.562Z,2.9
2022-08-12T22:11:21.660Z,3.8
2022-08-12T22:27:33.118Z,3
2022-08-12T22:42:51.607Z,2.9
2022-08-12T22:58:01.121Z,3.1
2022-08-12T23:13:11.515Z,2.5
2022-08-12T23:30:42.350Z,3
2022-08-12T23:46:01.411Z,2.5
